Silia — WDG2034 — position and weather

sailwx.info

Track history (hours):
 
Tides and Currents Weather Stations Pressure Air Temp Water Temp Dewpoint Dewpoint Depression Visibility Wind Speed Wind Dir Waves Ship Positions

Silia

Owner: greger pacific marine, napa, CA. More information available from US FCC via Universal Licensing System and Coast Guard Vessel Documentation Center.

Last reported at 2015-Mar-31 00:30 UTC. Time now 2015-Mar-31 06:43 UTC.
Position N 37°49' W 122°25'.

Length 17 m; draft 3 m.

Type: Tug. MMSI: 367511460.

Date/timePositionNaut miles runAvg speedWind from/ knotsBaromVisibWave heightAir tempDewpointWater temp
2015-Mar-31 00:30N 37°49' W 122°25'7 7.1
2015-Mar-30 23:33N 37°43' W 122°20'0 0.0
2015-Mar-30 21:33N 37°43' W 122°20'6 5.8
2015-Mar-30 20:33N 37°48' W 122°23'3 1.0
2015-Mar-30 17:33N 37°46' W 122°22'3 2.7
2015-Mar-30 16:33N 37°43' W 122°20'3 2.7
2015-Mar-30 15:33N 37°46' W 122°22'10 9.5
2015-Mar-30 14:33N 37°55' W 122°25'8 7.4
2015-Mar-30 13:32N 38°02' W 122°22'9 9.5
2015-Mar-30 12:33N 38°02' W 122°10'1110.1
2015-Mar-30 11:29N 38°03' W 121°56'9 9.1
2015-Mar-30 10:32N 38°02' W 121°45'  
2015-Mar-27 23:25N 38°03' W 121°54'1 0.1
2015-Mar-27 15:07N 38°03' W 121°55'  
Track history (hours):
 
Tides and Currents Weather Stations Pressure Air Temp Water Temp Dewpoint Dewpoint Depression Visibility Wind Speed Wind Dir Waves Ship Positions

Silia

Owner: greger pacific marine, napa, CA. More information available from US FCC via Universal Licensing System and Coast Guard Vessel Documentation Center.

Last reported at 2015-Mar-31 00:30 UTC. Time now 2015-Mar-31 06:43 UTC.
Position N 37°49' W 122°25'.

Length 17 m; draft 3 m.

Type: Tug. MMSI: 367511460.

Date/timePositionNaut miles runAvg speedWind from/ knotsBaromVisibWave heightAir tempDewpointWater temp
2015-Mar-31 00:30N 37°49' W 122°25'7 7.1
2015-Mar-30 23:33N 37°43' W 122°20'0 0.0
2015-Mar-30 21:33N 37°43' W 122°20'6 5.8
2015-Mar-30 20:33N 37°48' W 122°23'3 1.0
2015-Mar-30 17:33N 37°46' W 122°22'3 2.7
2015-Mar-30 16:33N 37°43' W 122°20'3 2.7
2015-Mar-30 15:33N 37°46' W 122°22'10 9.5
2015-Mar-30 14:33N 37°55' W 122°25'8 7.4
2015-Mar-30 13:32N 38°02' W 122°22'9 9.5
2015-Mar-30 12:33N 38°02' W 122°10'1110.1
2015-Mar-30 11:29N 38°03' W 121°56'9 9.1
2015-Mar-30 10:32N 38°02' W 121°45'  
2015-Mar-27 23:25N 38°03' W 121°54'1 0.1
2015-Mar-27 15:07N 38°03' W 121°55'  

Dump ship's entire track history